Time;durP1;ratioP1;P1;durP2;ratioP2;P2;SDS_P1;SDS_P2;PMS_P1;PMS_P2;Temp;Humidity;BMP_temperature;BMP_pressure;BME280_temperature;BME280_humidity;BME280_pressure;Samples;Min_cycle;Max_cycle;Signal;HPM_P1;HPM_P2
2022/03/03 00:02:08;;;;;;;87;110.5;;;;;;;-1.9;67.4;99090;;;;
2022/03/03 00:13:08;;;;;;;64.8;83.4;;;;;;;-1.7;67.3;99070;;;;
2022/03/03 00:24:08;;;;;;;64.8;83.4;;;;;;;-1.5;66.6;99070;;;;
2022/03/03 00:34:08;;;;;;;64.8;83.4;;;;;;;-1.4;66.6;99060;;;;
2022/03/03 00:45:08;;;;;;;63.5;82.1;;;;;;;-1.4;68.3;99060;;;;
2022/03/03 00:55:08;;;;;;;63.5;82.1;;;;;;;-1.6;69.8;99050;;;;
2022/03/03 01:05:08;;;;;;;63.5;82.1;;;;;;;-1.5;69.5;99040;;;;
2022/03/03 01:15:08;;;;;;;103.2;127.3;;;;;;;-1.6;70.1;99020;;;;
2022/03/03 01:26:08;;;;;;;103.2;127.3;;;;;;;-1.5;68.7;99020;;;;
2022/03/03 01:37:08;;;;;;;103.2;127.3;;;;;;;-1.4;67.9;99020;;;;
2022/03/03 01:48:08;;;;;;;74.2;92.9;;;;;;;-1.3;67.5;99010;;;;
2022/03/03 01:58:08;;;;;;;74.2;92.9;;;;;;;-1.3;67.9;99000;;;;
2022/03/03 02:08:08;;;;;;;74.2;92.9;;;;;;;-1.4;69.2;99000;;;;
2022/03/03 02:19:08;;;;;;;90.9;109.2;;;;;;;-1.5;70;99000;;;;
2022/03/03 02:30:08;;;;;;;90.9;109.2;;;;;;;-1.4;69.8;98990;;;;
2022/03/03 02:40:08;;;;;;;90.9;109.2;;;;;;;-1.4;69.4;98980;;;;
2022/03/03 02:50:08;;;;;;;102.3;120.1;;;;;;;-1.4;68.7;98980;;;;
2022/03/03 03:00:08;;;;;;;102.3;120.1;;;;;;;-1.5;69.1;98970;;;;
2022/03/03 03:11:09;;;;;;;102.3;120.1;;;;;;;-1.5;68.9;98960;;;;
2022/03/03 03:21:08;;;;;;;113.6;135.8;;;;;;;-1.5;69.4;98950;;;;
2022/03/03 03:31:08;;;;;;;113.6;135.8;;;;;;;-1.4;69.3;98960;;;;
2022/03/03 03:42:08;;;;;;;120.5;138.2;;;;;;;-1.6;69.2;98960;;;;
2022/03/03 03:53:09;;;;;;;120.5;138.2;;;;;;;-1.8;69.6;98970;;;;
2022/03/03 04:03:08;;;;;;;120.5;138.2;;;;;;;-1.9;70.3;98960;;;;
2022/03/03 04:13:08;;;;;;;120.3;141;;;;;;;-2.2;71;98950;;;;
2022/03/03 04:23:08;;;;;;;120.3;141;;;;;;;-2.4;72.1;98940;;;;
2022/03/03 04:34:08;;;;;;;120.3;141;;;;;;;-2.6;72.7;98920;;;;
2022/03/03 04:44:08;;;;;;;107.6;134.4;;;;;;;-2.7;72.4;98910;;;;
2022/03/03 04:54:08;;;;;;;107.6;134.4;;;;;;;-2.8;72.5;98910;;;;
2022/03/03 05:05:08;;;;;;;107.6;134.4;;;;;;;-2.9;72;98900;;;;
2022/03/03 05:15:08;;;;;;;87.9;118.3;;;;;;;-3.1;71.6;98900;;;;
2022/03/03 05:25:08;;;;;;;87.9;118.3;;;;;;;-3.3;72.1;98890;;;;
2022/03/03 05:35:08;;;;;;;87.9;118.3;;;;;;;-3.4;72.7;98900;;;;
2022/03/03 05:45:08;;;;;;;71;91;;;;;;;-3.5;72.5;98900;;;;
2022/03/03 05:55:08;;;;;;;71;91;;;;;;;-3.5;73.6;98910;;;;
2022/03/03 06:05:08;;;;;;;71;91;;;;;;;-3.6;73.6;98910;;;;
2022/03/03 06:15:09;;;;;;;82.2;114;;;;;;;-3.6;74.4;98900;;;;
2022/03/03 06:25:08;;;;;;;82.2;114;;;;;;;-3.3;74.8;98910;;;;
2022/03/03 06:36:08;;;;;;;82.2;114;;;;;;;-3;74.5;98900;;;;
2022/03/03 06:47:08;;;;;;;96.5;121.7;;;;;;;-2.8;74.1;98900;;;;
2022/03/03 06:58:08;;;;;;;96.5;121.7;;;;;;;-2.5;72.9;98910;;;;
2022/03/03 07:09:08;;;;;;;96.5;121.7;;;;;;;-2.4;72.6;98910;;;;
2022/03/03 07:19:08;;;;;;;112.4;133.3;;;;;;;-2.3;72.5;98910;;;;
2022/03/03 07:29:08;;;;;;;112.4;133.3;;;;;;;-1.8;71.8;98910;;;;
2022/03/03 07:40:08;;;;;;;112.4;133.3;;;;;;;-1.2;69.4;98900;;;;
2022/03/03 07:50:08;;;;;;;116.2;141.4;;;;;;;-0.8;67.9;98900;;;;
2022/03/03 08:01:08;;;;;;;116.2;141.4;;;;;;;-0.2;66.4;98900;;;;
2022/03/03 08:11:08;;;;;;;110.6;127.6;;;;;;;0.2;64.7;98900;;;;
2022/03/03 08:22:09;;;;;;;110.6;127.6;;;;;;;0.7;63.1;98890;;;;
2022/03/03 08:33:08;;;;;;;110.6;127.6;;;;;;;0.9;61.2;98890;;;;
2022/03/03 08:44:08;;;;;;;93;111.2;;;;;;;1;61;98880;;;;
2022/03/03 08:55:09;;;;;;;93;111.2;;;;;;;1.3;59.8;98880;;;;
2022/03/03 09:05:08;;;;;;;93;111.2;;;;;;;2.2;59.9;98860;;;;
2022/03/03 09:16:08;;;;;;;81.2;95.6;;;;;;;2.5;58.1;98860;;;;
2022/03/03 09:27:09;;;;;;;81.2;95.6;;;;;;;2.5;57.9;98860;;;;
2022/03/03 09:37:08;;;;;;;81.2;95.6;;;;;;;2.7;56.3;98850;;;;
2022/03/03 09:47:08;;;;;;;65.6;78.4;;;;;;;3.1;54.6;98850;;;;
2022/03/03 09:58:08;;;;;;;65.6;78.4;;;;;;;3.4;53.8;98840;;;;
2022/03/03 10:09:08;;;;;;;65.6;78.4;;;;;;;4;51.6;98830;;;;
2022/03/03 10:20:08;;;;;;;43.3;52.3;;;;;;;4.8;48.1;98830;;;;
2022/03/03 10:31:08;;;;;;;43.3;52.3;;;;;;;4.7;48;98820;;;;
2022/03/03 10:41:08;;;;;;;34;39.9;;;;;;;4.2;49.5;98820;;;;
2022/03/03 10:52:08;;;;;;;34;39.9;;;;;;;4.4;49.9;98820;;;;
2022/03/03 11:02:08;;;;;;;34;39.9;;;;;;;4.3;50.5;98800;;;;
2022/03/03 11:13:08;;;;;;;43.7;53.7;;;;;;;4.4;50;98790;;;;
2022/03/03 11:23:08;;;;;;;43.7;53.7;;;;;;;4.9;48.5;98780;;;;
2022/03/03 11:34:08;;;;;;;43.7;53.7;;;;;;;5.2;47.7;98760;;;;
2022/03/03 11:44:08;;;;;;;40.8;49.6;;;;;;;5.4;46.5;98750;;;;
2022/03/03 11:55:08;;;;;;;40.8;49.6;;;;;;;5.7;46.8;98730;;;;
2022/03/03 12:05:08;;;;;;;40.8;49.6;;;;;;;5.7;46.7;98730;;;;
2022/03/03 12:16:08;;;;;;;34.3;38.8;;;;;;;6;47.1;98730;;;;
2022/03/03 12:26:08;;;;;;;34.3;38.8;;;;;;;6.5;45;98710;;;;
2022/03/03 12:36:08;;;;;;;34.3;38.8;;;;;;;7;45.2;98710;;;;
2022/03/03 12:47:08;;;;;;;37.9;45.8;;;;;;;6.9;42.9;98700;;;;
2022/03/03 12:57:09;;;;;;;37.9;45.8;;;;;;;6.9;43.5;98700;;;;
2022/03/03 13:08:08;;;;;;;37.9;45.8;;;;;;;6.8;42.9;98700;;;;
2022/03/03 13:19:08;;;;;;;34.1;38.4;;;;;;;7.1;43.5;98690;;;;
2022/03/03 13:29:09;;;;;;;34.1;38.4;;;;;;;7.1;40.8;98680;;;;
2022/03/03 13:39:09;;;;;;;34.1;38.4;;;;;;;6.9;40.1;98670;;;;
2022/03/03 13:50:08;;;;;;;26.8;32.2;;;;;;;6.9;36.8;98670;;;;
2022/03/03 14:00:12;;;;;;;26.8;32.2;;;;;;;6.6;35.8;98660;;;;
2022/03/03 14:10:08;;;;;;;16.1;20;;;;;;;6.6;36.1;98650;;;;
2022/03/03 14:21:08;;;;;;;16.1;20;;;;;;;6.6;36.6;98640;;;;
2022/03/03 14:32:08;;;;;;;16.1;20;;;;;;;6;36.1;98630;;;;
2022/03/03 14:43:08;;;;;;;15.3;19.6;;;;;;;5.9;36.2;98620;;;;
2022/03/03 14:54:09;;;;;;;15.3;19.6;;;;;;;6;38.1;98620;;;;
2022/03/03 15:04:12;;;;;;;15.3;19.6;;;;;;;5.8;38.9;98620;;;;
2022/03/03 15:14:09;;;;;;;22;27.3;;;;;;;5.5;43.4;98620;;;;
2022/03/03 15:25:08;;;;;;;22;27.3;;;;;;;4.9;46.1;98620;;;;
2022/03/03 15:46:08;;;;;;;37.5;43.9;;;;;;;4;48.3;98620;;;;
2022/03/03 15:56:08;;;;;;;37.5;43.9;;;;;;;3.6;49.1;98630;;;;
2022/03/03 16:06:08;;;;;;;37.5;43.9;;;;;;;3.2;50.3;98630;;;;
2022/03/03 16:17:08;;;;;;;43.3;54;;;;;;;2.8;51.3;98640;;;;
2022/03/03 16:27:08;;;;;;;43.3;54;;;;;;;2.4;53.5;98640;;;;
2022/03/03 16:37:08;;;;;;;43.3;54;;;;;;;2.2;52.1;98640;;;;
2022/03/03 16:48:08;;;;;;;45.6;55.2;;;;;;;1.6;53.2;98640;;;;
2022/03/03 16:58:08;;;;;;;45.6;55.2;;;;;;;1.1;54.2;98640;;;;
2022/03/03 17:08:08;;;;;;;45.6;55.2;;;;;;;0.7;55;98640;;;;
2022/03/03 17:19:08;;;;;;;52;64.6;;;;;;;0.2;56.3;98650;;;;
2022/03/03 17:30:08;;;;;;;52;64.6;;;;;;;0;57.7;98660;;;;
2022/03/03 17:40:08;;;;;;;56.5;71.5;;;;;;;-0.5;58.7;98660;;;;
2022/03/03 17:51:08;;;;;;;56.5;71.5;;;;;;;-0.5;61.4;98670;;;;
2022/03/03 18:02:08;;;;;;;56.5;71.5;;;;;;;-0.7;61.2;98680;;;;
2022/03/03 18:12:08;;;;;;;82;101.6;;;;;;;-0.5;63.2;98680;;;;
2022/03/03 18:23:08;;;;;;;82;101.6;;;;;;;-0.4;62.5;98680;;;;
2022/03/03 18:33:08;;;;;;;82;101.6;;;;;;;-0.2;62.3;98690;;;;
2022/03/03 18:44:08;;;;;;;89.1;105.5;;;;;;;-0.1;62.5;98690;;;;
2022/03/03 18:54:08;;;;;;;89.1;105.5;;;;;;;0;62.7;98690;;;;
2022/03/03 19:05:09;;;;;;;89.1;105.5;;;;;;;0.2;60.9;98690;;;;
2022/03/03 19:15:08;;;;;;;83.5;98.8;;;;;;;0.3;60.6;98700;;;;
2022/03/03 19:26:10;;;;;;;83.5;98.8;;;;;;;0.3;60.4;98710;;;;
2022/03/03 19:36:08;;;;;;;83.5;98.8;;;;;;;0.1;61;98720;;;;
2022/03/03 19:46:08;;;;;;;96;118.2;;;;;;;-0.1;61.7;98740;;;;
2022/03/03 19:57:08;;;;;;;96;118.2;;;;;;;-0.6;62.1;98740;;;;
2022/03/03 20:08:08;;;;;;;96;118.2;;;;;;;-1;63.5;98760;;;;
2022/03/03 20:19:08;;;;;;;128;157.5;;;;;;;-0.8;67.6;98770;;;;
2022/03/03 20:30:08;;;;;;;128;157.5;;;;;;;-0.5;69.2;98780;;;;
2022/03/03 20:41:08;;;;;;;72.7;87.8;;;;;;;-0.3;71.5;98790;;;;
2022/03/03 20:51:08;;;;;;;72.7;87.8;;;;;;;-0.5;72.1;98790;;;;
2022/03/03 21:02:08;;;;;;;72.7;87.8;;;;;;;-0.5;73.4;98800;;;;
2022/03/03 21:12:08;;;;;;;71.6;89.3;;;;;;;-0.6;73.8;98810;;;;
2022/03/03 21:22:08;;;;;;;71.6;89.3;;;;;;;-0.6;74;98810;;;;
2022/03/03 21:33:09;;;;;;;71.6;89.3;;;;;;;-0.7;74.7;98820;;;;
2022/03/03 21:44:10;;;;;;;67.5;79.1;;;;;;;-0.7;75;98820;;;;
2022/03/03 21:54:08;;;;;;;67.5;79.1;;;;;;;-0.7;74.2;98820;;;;
2022/03/03 22:04:08;;;;;;;67.5;79.1;;;;;;;-0.8;75;98830;;;;
2022/03/03 22:15:13;;;;;;;65.2;77.6;;;;;;;-0.6;74.4;98840;;;;
2022/03/03 22:26:08;;;;;;;65.2;77.6;;;;;;;-0.4;73.8;98840;;;;
2022/03/03 22:36:08;;;;;;;65.2;77.6;;;;;;;-0.4;74.1;98840;;;;
2022/03/03 22:46:08;;;;;;;59.5;76.3;;;;;;;-0.2;73.2;98840;;;;
2022/03/03 22:57:08;;;;;;;59.5;76.3;;;;;;;-0.1;72.6;98830;;;;
2022/03/03 23:07:16;;;;;;;59.5;76.3;;;;;;;-0.1;72.2;98830;;;;
2022/03/03 23:18:08;;;;;;;54.5;63.6;;;;;;;0;71.8;98830;;;;
2022/03/03 23:28:09;;;;;;;54.5;63.6;;;;;;;0.1;71.2;98830;;;;
2022/03/03 23:38:08;;;;;;;47.9;55.9;;;;;;;0.1;71.1;98830;;;;
2022/03/03 23:48:08;;;;;;;47.9;55.9;;;;;;;0.2;70.7;98830;;;;
2022/03/03 23:59:08;;;;;;;47.9;55.9;;;;;;;0.2;70.5;98840;;;;
